sensor_id;sensor_type;location;lat;lon;timestamp;P1;durP1;ratioP1;P2;durP2;ratioP2
12328;SDS011;6230;52.390;10.256;2023-04-25T00:02:21;11.77;;;9.90;;
12328;SDS011;6230;52.390;10.256;2023-04-25T00:04:47;12.03;;;8.23;;
12328;SDS011;6230;52.390;10.256;2023-04-25T00:07:14;14.63;;;8.50;;
12328;SDS011;6230;52.390;10.256;2023-04-25T00:09:40;10.10;;;7.87;;
12328;SDS011;6230;52.390;10.256;2023-04-25T00:12:06;13.83;;;7.63;;
12328;SDS011;6230;52.390;10.256;2023-04-25T00:14:31;12.37;;;7.90;;
12328;SDS011;6230;52.390;10.256;2023-04-25T00:17:00;12.33;;;7.70;;
12328;SDS011;6230;52.390;10.256;2023-04-25T00:19:27;10.97;;;7.07;;
12328;SDS011;6230;52.390;10.256;2023-04-25T00:21:56;11.03;;;7.17;;
12328;SDS011;6230;52.390;10.256;2023-04-25T00:24:21;11.17;;;7.40;;
12328;SDS011;6230;52.390;10.256;2023-04-25T00:26:47;14.03;;;7.30;;
12328;SDS011;6230;52.390;10.256;2023-04-25T00:29:12;10.50;;;7.10;;
12328;SDS011;6230;52.390;10.256;2023-04-25T00:31:38;11.77;;;6.87;;
12328;SDS011;6230;52.390;10.256;2023-04-25T00:34:03;11.00;;;7.70;;
12328;SDS011;6230;52.390;10.256;2023-04-25T00:36:29;9.83;;;8.27;;
12328;SDS011;6230;52.390;10.256;2023-04-25T00:38:55;10.63;;;7.93;;
12328;SDS011;6230;52.390;10.256;2023-04-25T00:41:21;13.37;;;9.00;;
12328;SDS011;6230;52.390;10.256;2023-04-25T00:43:47;13.00;;;9.40;;
12328;SDS011;6230;52.390;10.256;2023-04-25T00:46:13;13.20;;;11.57;;
12328;SDS011;6230;52.390;10.256;2023-04-25T00:48:39;14.30;;;10.20;;
12328;SDS011;6230;52.390;10.256;2023-04-25T00:51:04;17.03;;;14.37;;
12328;SDS011;6230;52.390;10.256;2023-04-25T00:53:31;16.33;;;12.17;;
12328;SDS011;6230;52.390;10.256;2023-04-25T00:55:57;19.47;;;12.60;;
12328;SDS011;6230;52.390;10.256;2023-04-25T00:58:23;15.23;;;9.77;;
12328;SDS011;6230;52.390;10.256;2023-04-25T01:00:50;21.80;;;16.07;;
12328;SDS011;6230;52.390;10.256;2023-04-25T01:03:17;17.63;;;11.67;;
12328;SDS011;6230;52.390;10.256;2023-04-25T01:05:45;26.00;;;17.13;;
12328;SDS011;6230;52.390;10.256;2023-04-25T01:08:11;21.93;;;14.37;;
12328;SDS011;6230;52.390;10.256;2023-04-25T01:10:38;19.47;;;13.40;;
12328;SDS011;6230;52.390;10.256;2023-04-25T01:13:03;17.37;;;15.47;;
12328;SDS011;6230;52.390;10.256;2023-04-25T01:15:29;13.83;;;10.63;;
12328;SDS011;6230;52.390;10.256;2023-04-25T01:17:55;20.13;;;11.03;;
12328;SDS011;6230;52.390;10.256;2023-04-25T01:20:22;12.47;;;8.83;;
12328;SDS011;6230;52.390;10.256;2023-04-25T01:22:48;15.33;;;10.27;;
12328;SDS011;6230;52.390;10.256;2023-04-25T01:25:14;17.17;;;11.00;;
12328;SDS011;6230;52.390;10.256;2023-04-25T01:27:40;16.43;;;13.13;;
12328;SDS011;6230;52.390;10.256;2023-04-25T01:30:06;15.90;;;10.87;;
12328;SDS011;6230;52.390;10.256;2023-04-25T01:32:32;11.03;;;9.30;;
12328;SDS011;6230;52.390;10.256;2023-04-25T01:35:04;14.43;;;11.03;;
12328;SDS011;6230;52.390;10.256;2023-04-25T01:37:34;15.20;;;8.10;;
12328;SDS011;6230;52.390;10.256;2023-04-25T01:40:08;14.33;;;12.53;;
12328;SDS011;6230;52.390;10.256;2023-04-25T01:42:35;12.73;;;8.90;;
12328;SDS011;6230;52.390;10.256;2023-04-25T01:45:02;11.37;;;8.83;;
12328;SDS011;6230;52.390;10.256;2023-04-25T01:47:28;20.30;;;15.13;;
12328;SDS011;6230;52.390;10.256;2023-04-25T01:49:54;13.70;;;10.80;;
12328;SDS011;6230;52.390;10.256;2023-04-25T01:52:19;16.43;;;11.77;;
12328;SDS011;6230;52.390;10.256;2023-04-25T01:54:45;16.53;;;10.10;;
12328;SDS011;6230;52.390;10.256;2023-04-25T01:57:11;12.97;;;9.73;;
12328;SDS011;6230;52.390;10.256;2023-04-25T01:59:37;13.67;;;7.63;;
12328;SDS011;6230;52.390;10.256;2023-04-25T02:02:03;12.40;;;9.67;;
12328;SDS011;6230;52.390;10.256;2023-04-25T02:04:31;13.80;;;9.27;;
12328;SDS011;6230;52.390;10.256;2023-04-25T02:06:57;12.80;;;7.73;;
12328;SDS011;6230;52.390;10.256;2023-04-25T02:09:23;22.53;;;11.50;;
12328;SDS011;6230;52.390;10.256;2023-04-25T02:11:49;13.53;;;10.60;;
12328;SDS011;6230;52.390;10.256;2023-04-25T02:14:14;14.00;;;8.70;;
12328;SDS011;6230;52.390;10.256;2023-04-25T02:16:40;11.37;;;8.60;;
12328;SDS011;6230;52.390;10.256;2023-04-25T02:19:06;15.90;;;9.40;;
12328;SDS011;6230;52.390;10.256;2023-04-25T02:21:31;10.17;;;7.77;;
12328;SDS011;6230;52.390;10.256;2023-04-25T02:23:57;12.20;;;8.13;;
12328;SDS011;6230;52.390;10.256;2023-04-25T02:26:23;13.67;;;11.77;;
12328;SDS011;6230;52.390;10.256;2023-04-25T02:28:49;12.27;;;8.43;;
12328;SDS011;6230;52.390;10.256;2023-04-25T02:31:15;12.23;;;8.07;;
12328;SDS011;6230;52.390;10.256;2023-04-25T02:33:41;12.47;;;7.90;;
12328;SDS011;6230;52.390;10.256;2023-04-25T02:36:07;16.23;;;8.23;;
12328;SDS011;6230;52.390;10.256;2023-04-25T02:38:32;13.10;;;8.47;;
12328;SDS011;6230;52.390;10.256;2023-04-25T02:40:58;15.33;;;8.20;;
12328;SDS011;6230;52.390;10.256;2023-04-25T02:43:23;15.67;;;8.47;;
12328;SDS011;6230;52.390;10.256;2023-04-25T02:45:49;18.43;;;15.27;;
12328;SDS011;6230;52.390;10.256;2023-04-25T02:48:15;14.07;;;9.27;;
12328;SDS011;6230;52.390;10.256;2023-04-25T02:50:40;12.27;;;8.93;;
12328;SDS011;6230;52.390;10.256;2023-04-25T02:53:06;20.13;;;9.93;;
12328;SDS011;6230;52.390;10.256;2023-04-25T02:55:31;13.97;;;8.70;;
12328;SDS011;6230;52.390;10.256;2023-04-25T02:57:57;19.57;;;12.57;;
12328;SDS011;6230;52.390;10.256;2023-04-25T03:00:23;19.80;;;14.47;;
12328;SDS011;6230;52.390;10.256;2023-04-25T03:02:48;18.37;;;16.40;;
12328;SDS011;6230;52.390;10.256;2023-04-25T03:05:14;21.83;;;19.30;;
12328;SDS011;6230;52.390;10.256;2023-04-25T03:07:39;19.73;;;18.17;;
12328;SDS011;6230;52.390;10.256;2023-04-25T03:10:08;16.23;;;14.83;;
12328;SDS011;6230;52.390;10.256;2023-04-25T03:12:34;19.07;;;15.87;;
12328;SDS011;6230;52.390;10.256;2023-04-25T03:14:59;14.87;;;13.10;;
12328;SDS011;6230;52.390;10.256;2023-04-25T03:17:25;14.97;;;12.73;;
12328;SDS011;6230;52.390;10.256;2023-04-25T03:19:51;16.77;;;12.67;;
12328;SDS011;6230;52.390;10.256;2023-04-25T03:22:16;15.00;;;12.37;;
12328;SDS011;6230;52.390;10.256;2023-04-25T03:24:42;18.17;;;11.67;;
12328;SDS011;6230;52.390;10.256;2023-04-25T03:27:08;16.80;;;10.87;;
12328;SDS011;6230;52.390;10.256;2023-04-25T03:29:33;17.83;;;11.87;;
12328;SDS011;6230;52.390;10.256;2023-04-25T03:31:59;15.53;;;10.40;;
12328;SDS011;6230;52.390;10.256;2023-04-25T03:34:24;15.53;;;9.97;;
12328;SDS011;6230;52.390;10.256;2023-04-25T03:36:50;16.93;;;11.13;;
12328;SDS011;6230;52.390;10.256;2023-04-25T03:39:16;16.77;;;10.93;;
12328;SDS011;6230;52.390;10.256;2023-04-25T03:41:42;13.33;;;10.10;;
12328;SDS011;6230;52.390;10.256;2023-04-25T03:44:07;16.40;;;11.03;;
12328;SDS011;6230;52.390;10.256;2023-04-25T03:46:33;13.20;;;11.13;;
12328;SDS011;6230;52.390;10.256;2023-04-25T03:48:58;18.43;;;10.97;;
12328;SDS011;6230;52.390;10.256;2023-04-25T03:51:24;12.63;;;10.23;;
12328;SDS011;6230;52.390;10.256;2023-04-25T03:53:51;16.03;;;11.40;;
12328;SDS011;6230;52.390;10.256;2023-04-25T03:56:16;15.73;;;11.10;;
12328;SDS011;6230;52.390;10.256;2023-04-25T03:58:42;17.47;;;11.63;;
12328;SDS011;6230;52.390;10.256;2023-04-25T04:01:07;25.10;;;12.90;;
12328;SDS011;6230;52.390;10.256;2023-04-25T04:03:33;15.80;;;10.27;;
12328;SDS011;6230;52.390;10.256;2023-04-25T04:06:00;18.70;;;10.43;;
12328;SDS011;6230;52.390;10.256;2023-04-25T04:08:30;19.33;;;11.07;;
12328;SDS011;6230;52.390;10.256;2023-04-25T04:10:59;24.97;;;11.47;;
12328;SDS011;6230;52.390;10.256;2023-04-25T04:13:25;21.60;;;11.30;;
12328;SDS011;6230;52.390;10.256;2023-04-25T04:15:51;18.47;;;10.67;;
12328;SDS011;6230;52.390;10.256;2023-04-25T04:18:17;19.03;;;11.27;;
12328;SDS011;6230;52.390;10.256;2023-04-25T04:20:42;19.20;;;10.80;;
12328;SDS011;6230;52.390;10.256;2023-04-25T04:23:08;21.17;;;11.13;;
12328;SDS011;6230;52.390;10.256;2023-04-25T04:25:33;14.77;;;10.43;;
12328;SDS011;6230;52.390;10.256;2023-04-25T04:27:59;15.73;;;10.17;;
12328;SDS011;6230;52.390;10.256;2023-04-25T04:30:26;24.67;;;10.77;;
12328;SDS011;6230;52.390;10.256;2023-04-25T04:32:54;19.37;;;10.40;;
12328;SDS011;6230;52.390;10.256;2023-04-25T04:35:23;18.70;;;11.27;;
12328;SDS011;6230;52.390;10.256;2023-04-25T04:37:49;20.37;;;11.03;;
12328;SDS011;6230;52.390;10.256;2023-04-25T04:40:15;20.93;;;11.67;;
12328;SDS011;6230;52.390;10.256;2023-04-25T04:42:42;22.70;;;10.57;;
12328;SDS011;6230;52.390;10.256;2023-04-25T04:45:10;23.33;;;11.70;;
12328;SDS011;6230;52.390;10.256;2023-04-25T04:47:36;23.63;;;10.67;;
12328;SDS011;6230;52.390;10.256;2023-04-25T04:50:02;21.77;;;11.10;;
12328;SDS011;6230;52.390;10.256;2023-04-25T04:52:29;17.37;;;10.17;;
12328;SDS011;6230;52.390;10.256;2023-04-25T04:54:54;24.30;;;10.93;;
12328;SDS011;6230;52.390;10.256;2023-04-25T04:57:20;19.13;;;10.27;;
12328;SDS011;6230;52.390;10.256;2023-04-25T04:59:46;22.13;;;11.60;;
12328;SDS011;6230;52.390;10.256;2023-04-25T05:02:11;21.10;;;9.83;;
12328;SDS011;6230;52.390;10.256;2023-04-25T05:04:37;20.13;;;9.30;;
12328;SDS011;6230;52.390;10.256;2023-04-25T05:07:02;23.70;;;8.27;;
12328;SDS011;6230;52.390;10.256;2023-04-25T05:09:28;18.90;;;7.57;;
12328;SDS011;6230;52.390;10.256;2023-04-25T05:11:53;20.80;;;7.63;;
12328;SDS011;6230;52.390;10.256;2023-04-25T05:14:19;17.10;;;6.10;;
12328;SDS011;6230;52.390;10.256;2023-04-25T05:16:44;19.07;;;6.97;;
12328;SDS011;6230;52.390;10.256;2023-04-25T05:19:10;19.67;;;5.50;;
12328;SDS011;6230;52.390;10.256;2023-04-25T05:21:35;16.27;;;6.67;;
12328;SDS011;6230;52.390;10.256;2023-04-25T05:24:01;24.73;;;7.13;;
12328;SDS011;6230;52.390;10.256;2023-04-25T05:26:27;20.97;;;5.20;;
12328;SDS011;6230;52.390;10.256;2023-04-25T05:28:56;16.87;;;5.93;;
12328;SDS011;6230;52.390;10.256;2023-04-25T05:31:22;19.47;;;7.10;;
12328;SDS011;6230;52.390;10.256;2023-04-25T05:33:47;20.03;;;5.60;;
12328;SDS011;6230;52.390;10.256;2023-04-25T05:36:13;14.97;;;5.33;;
12328;SDS011;6230;52.390;10.256;2023-04-25T05:38:38;17.10;;;5.97;;
12328;SDS011;6230;52.390;10.256;2023-04-25T05:41:04;24.73;;;7.40;;
12328;SDS011;6230;52.390;10.256;2023-04-25T05:43:29;19.23;;;6.57;;
12328;SDS011;6230;52.390;10.256;2023-04-25T05:45:55;21.47;;;6.50;;
12328;SDS011;6230;52.390;10.256;2023-04-25T05:48:20;13.70;;;6.13;;
12328;SDS011;6230;52.390;10.256;2023-04-25T05:50:46;19.40;;;7.60;;
12328;SDS011;6230;52.390;10.256;2023-04-25T05:53:12;23.17;;;6.13;;
12328;SDS011;6230;52.390;10.256;2023-04-25T05:55:37;17.13;;;6.30;;
12328;SDS011;6230;52.390;10.256;2023-04-25T05:58:04;15.30;;;5.07;;
12328;SDS011;6230;52.390;10.256;2023-04-25T06:00:31;18.57;;;6.60;;
12328;SDS011;6230;52.390;10.256;2023-04-25T06:02:57;18.27;;;5.97;;
12328;SDS011;6230;52.390;10.256;2023-04-25T06:05:22;21.33;;;6.93;;
12328;SDS011;6230;52.390;10.256;2023-04-25T06:07:48;16.87;;;7.20;;
12328;SDS011;6230;52.390;10.256;2023-04-25T06:10:13;19.37;;;5.87;;
12328;SDS011;6230;52.390;10.256;2023-04-25T06:12:39;20.57;;;6.87;;
12328;SDS011;6230;52.390;10.256;2023-04-25T06:15:05;20.80;;;5.80;;
12328;SDS011;6230;52.390;10.256;2023-04-25T06:17:31;18.67;;;5.43;;
12328;SDS011;6230;52.390;10.256;2023-04-25T06:19:57;18.90;;;9.17;;
12328;SDS011;6230;52.390;10.256;2023-04-25T06:22:23;18.33;;;8.00;;
12328;SDS011;6230;52.390;10.256;2023-04-25T06:24:48;14.67;;;5.57;;
12328;SDS011;6230;52.390;10.256;2023-04-25T06:27:14;14.80;;;9.37;;
12328;SDS011;6230;52.390;10.256;2023-04-25T06:29:39;17.00;;;5.20;;
12328;SDS011;6230;52.390;10.256;2023-04-25T06:32:05;16.27;;;4.17;;
12328;SDS011;6230;52.390;10.256;2023-04-25T06:34:30;14.13;;;4.77;;
12328;SDS011;6230;52.390;10.256;2023-04-25T06:36:56;17.53;;;4.70;;
12328;SDS011;6230;52.390;10.256;2023-04-25T06:39:21;17.73;;;5.27;;
12328;SDS011;6230;52.390;10.256;2023-04-25T06:41:48;10.00;;;3.33;;
12328;SDS011;6230;52.390;10.256;2023-04-25T06:44:14;16.90;;;4.23;;
12328;SDS011;6230;52.390;10.256;2023-04-25T06:46:40;16.60;;;4.53;;
12328;SDS011;6230;52.390;10.256;2023-04-25T06:49:06;14.00;;;4.23;;
12328;SDS011;6230;52.390;10.256;2023-04-25T06:51:31;16.20;;;4.60;;
12328;SDS011;6230;52.390;10.256;2023-04-25T06:53:57;17.13;;;4.90;;
12328;SDS011;6230;52.390;10.256;2023-04-25T06:56:22;16.97;;;4.30;;
12328;SDS011;6230;52.390;10.256;2023-04-25T06:58:48;10.27;;;3.73;;
12328;SDS011;6230;52.390;10.256;2023-04-25T07:01:14;11.17;;;4.20;;
12328;SDS011;6230;52.390;10.256;2023-04-25T07:03:40;15.90;;;4.50;;
12328;SDS011;6230;52.390;10.256;2023-04-25T07:06:05;9.27;;;4.10;;
12328;SDS011;6230;52.390;10.256;2023-04-25T07:08:31;17.43;;;5.33;;
12328;SDS011;6230;52.390;10.256;2023-04-25T07:10:56;10.83;;;3.60;;
12328;SDS011;6230;52.390;10.256;2023-04-25T07:13:22;15.03;;;4.07;;
12328;SDS011;6230;52.390;10.256;2023-04-25T07:15:48;10.50;;;4.20;;
12328;SDS011;6230;52.390;10.256;2023-04-25T07:18:13;12.43;;;4.53;;
12328;SDS011;6230;52.390;10.256;2023-04-25T07:20:39;17.00;;;4.43;;
12328;SDS011;6230;52.390;10.256;2023-04-25T07:23:05;14.07;;;3.13;;
12328;SDS011;6230;52.390;10.256;2023-04-25T07:25:30;14.80;;;3.10;;
12328;SDS011;6230;52.390;10.256;2023-04-25T07:27:56;15.80;;;3.30;;
12328;SDS011;6230;52.390;10.256;2023-04-25T07:30:21;9.73;;;3.47;;
12328;SDS011;6230;52.390;10.256;2023-04-25T07:32:47;16.47;;;3.23;;
12328;SDS011;6230;52.390;10.256;2023-04-25T07:35:13;22.33;;;3.97;;
12328;SDS011;6230;52.390;10.256;2023-04-25T07:37:39;14.07;;;4.03;;
12328;SDS011;6230;52.390;10.256;2023-04-25T07:40:05;13.73;;;3.57;;
12328;SDS011;6230;52.390;10.256;2023-04-25T07:42:31;8.23;;;3.23;;
12328;SDS011;6230;52.390;10.256;2023-04-25T07:44:57;12.70;;;3.50;;
12328;SDS011;6230;52.390;10.256;2023-04-25T07:47:22;8.53;;;3.93;;
12328;SDS011;6230;52.390;10.256;2023-04-25T07:49:48;10.90;;;3.83;;
12328;SDS011;6230;52.390;10.256;2023-04-25T07:52:14;12.67;;;4.00;;
12328;SDS011;6230;52.390;10.256;2023-04-25T07:54:40;12.80;;;3.63;;
12328;SDS011;6230;52.390;10.256;2023-04-25T07:57:05;9.93;;;3.60;;
12328;SDS011;6230;52.390;10.256;2023-04-25T07:59:31;9.90;;;3.60;;
12328;SDS011;6230;52.390;10.256;2023-04-25T08:01:57;12.27;;;4.13;;
12328;SDS011;6230;52.390;10.256;2023-04-25T08:04:23;13.30;;;3.70;;
12328;SDS011;6230;52.390;10.256;2023-04-25T08:06:49;9.20;;;3.87;;
12328;SDS011;6230;52.390;10.256;2023-04-25T08:09:15;12.63;;;4.00;;
12328;SDS011;6230;52.390;10.256;2023-04-25T08:11:40;10.77;;;3.53;;
12328;SDS011;6230;52.390;10.256;2023-04-25T08:14:06;14.13;;;4.17;;
12328;SDS011;6230;52.390;10.256;2023-04-25T08:16:32;14.00;;;5.47;;
12328;SDS011;6230;52.390;10.256;2023-04-25T08:18:58;11.80;;;4.27;;
12328;SDS011;6230;52.390;10.256;2023-04-25T08:21:24;17.03;;;4.63;;
12328;SDS011;6230;52.390;10.256;2023-04-25T08:23:51;13.10;;;3.90;;
12328;SDS011;6230;52.390;10.256;2023-04-25T08:26:17;10.73;;;4.93;;
12328;SDS011;6230;52.390;10.256;2023-04-25T08:28:43;10.03;;;4.37;;
12328;SDS011;6230;52.390;10.256;2023-04-25T08:31:08;13.40;;;3.63;;
12328;SDS011;6230;52.390;10.256;2023-04-25T08:33:34;11.37;;;3.73;;
12328;SDS011;6230;52.390;10.256;2023-04-25T08:35:59;9.67;;;3.47;;
12328;SDS011;6230;52.390;10.256;2023-04-25T08:38:25;14.07;;;3.60;;
12328;SDS011;6230;52.390;10.256;2023-04-25T08:40:51;10.30;;;3.77;;
12328;SDS011;6230;52.390;10.256;2023-04-25T08:43:18;11.63;;;3.40;;
12328;SDS011;6230;52.390;10.256;2023-04-25T08:45:44;8.93;;;3.20;;
12328;SDS011;6230;52.390;10.256;2023-04-25T08:48:14;10.37;;;3.17;;
12328;SDS011;6230;52.390;10.256;2023-04-25T08:50:51;8.83;;;3.10;;
12328;SDS011;6230;52.390;10.256;2023-04-25T08:53:21;7.23;;;2.97;;
12328;SDS011;6230;52.390;10.256;2023-04-25T08:55:50;9.57;;;3.67;;
12328;SDS011;6230;52.390;10.256;2023-04-25T08:58:18;9.27;;;2.83;;
12328;SDS011;6230;52.390;10.256;2023-04-25T09:00:45;12.37;;;3.77;;
12328;SDS011;6230;52.390;10.256;2023-04-25T09:03:12;8.63;;;3.07;;
12328;SDS011;6230;52.390;10.256;2023-04-25T09:05:38;9.47;;;3.47;;
12328;SDS011;6230;52.390;10.256;2023-04-25T09:08:05;9.00;;;2.43;;
12328;SDS011;6230;52.390;10.256;2023-04-25T09:10:31;8.70;;;2.80;;
12328;SDS011;6230;52.390;10.256;2023-04-25T09:13:06;7.47;;;3.07;;
12328;SDS011;6230;52.390;10.256;2023-04-25T09:15:46;9.63;;;2.63;;
12328;SDS011;6230;52.390;10.256;2023-04-25T09:18:22;7.47;;;2.73;;
12328;SDS011;6230;52.390;10.256;2023-04-25T09:20:54;8.07;;;2.60;;
12328;SDS011;6230;52.390;10.256;2023-04-25T09:23:22;9.53;;;2.40;;
12328;SDS011;6230;52.390;10.256;2023-04-25T09:25:48;8.10;;;2.80;;
12328;SDS011;6230;52.390;10.256;2023-04-25T09:28:15;11.93;;;3.03;;
12328;SDS011;6230;52.390;10.256;2023-04-25T09:30:41;9.93;;;3.30;;
12328;SDS011;6230;52.390;10.256;2023-04-25T09:33:08;9.50;;;3.17;;
12328;SDS011;6230;52.390;10.256;2023-04-25T09:35:39;6.17;;;2.27;;
12328;SDS011;6230;52.390;10.256;2023-04-25T09:38:08;9.27;;;2.90;;
12328;SDS011;6230;52.390;10.256;2023-04-25T09:40:38;9.27;;;3.97;;
12328;SDS011;6230;52.390;10.256;2023-04-25T09:43:26;7.73;;;3.03;;
12328;SDS011;6230;52.390;10.256;2023-04-25T09:45:53;8.07;;;3.37;;
12328;SDS011;6230;52.390;10.256;2023-04-25T09:48:22;9.80;;;4.03;;
12328;SDS011;6230;52.390;10.256;2023-04-25T09:53:42;8.33;;;3.40;;
12328;SDS011;6230;52.390;10.256;2023-04-25T09:56:09;9.90;;;3.87;;
12328;SDS011;6230;52.390;10.256;2023-04-25T09:58:37;15.53;;;3.67;;
12328;SDS011;6230;52.390;10.256;2023-04-25T10:01:05;8.13;;;3.40;;
12328;SDS011;6230;52.390;10.256;2023-04-25T10:03:33;8.43;;;3.40;;
12328;SDS011;6230;52.390;10.256;2023-04-25T10:06:01;7.13;;;2.73;;
12328;SDS011;6230;52.390;10.256;2023-04-25T10:08:33;7.97;;;2.90;;
12328;SDS011;6230;52.390;10.256;2023-04-25T10:11:03;6.17;;;2.60;;
12328;SDS011;6230;52.390;10.256;2023-04-25T10:13:30;6.70;;;3.03;;
12328;SDS011;6230;52.390;10.256;2023-04-25T10:15:57;9.80;;;3.23;;
12328;SDS011;6230;52.390;10.256;2023-04-25T10:18:24;5.10;;;2.27;;
12328;SDS011;6230;52.390;10.256;2023-04-25T10:20:52;5.40;;;2.00;;
12328;SDS011;6230;52.390;10.256;2023-04-25T10:23:19;4.87;;;2.30;;
12328;SDS011;6230;52.390;10.256;2023-04-25T10:25:45;2.30;;;2.07;;
12328;SDS011;6230;52.390;10.256;2023-04-25T10:28:11;4.07;;;2.03;;
12328;SDS011;6230;52.390;10.256;2023-04-25T10:30:36;5.13;;;2.07;;
12328;SDS011;6230;52.390;10.256;2023-04-25T10:33:02;12.50;;;2.30;;
12328;SDS011;6230;52.390;10.256;2023-04-25T10:35:42;7.67;;;2.50;;
12328;SDS011;6230;52.390;10.256;2023-04-25T10:38:10;6.00;;;2.30;;
12328;SDS011;6230;52.390;10.256;2023-04-25T10:40:38;5.10;;;2.10;;
12328;SDS011;6230;52.390;10.256;2023-04-25T10:46:22;7.63;;;2.30;;
12328;SDS011;6230;52.390;10.256;2023-04-25T10:48:50;6.70;;;2.33;;
12328;SDS011;6230;52.390;10.256;2023-04-25T10:51:23;7.43;;;2.10;;
12328;SDS011;6230;52.390;10.256;2023-04-25T10:53:56;4.07;;;2.00;;
12328;SDS011;6230;52.390;10.256;2023-04-25T10:59:08;7.43;;;2.40;;
12328;SDS011;6230;52.390;10.256;2023-04-25T11:04:06;7.53;;;2.47;;
12328;SDS011;6230;52.390;10.256;2023-04-25T11:09:14;6.83;;;2.27;;
12328;SDS011;6230;52.390;10.256;2023-04-25T11:11:40;6.17;;;2.13;;
12328;SDS011;6230;52.390;10.256;2023-04-25T11:14:06;7.20;;;2.13;;
12328;SDS011;6230;52.390;10.256;2023-04-25T11:16:32;7.10;;;2.43;;
12328;SDS011;6230;52.390;10.256;2023-04-25T11:18:58;7.20;;;2.60;;
12328;SDS011;6230;52.390;10.256;2023-04-25T11:21:26;4.77;;;2.13;;
12328;SDS011;6230;52.390;10.256;2023-04-25T11:23:53;7.10;;;2.90;;
12328;SDS011;6230;52.390;10.256;2023-04-25T11:26:21;5.97;;;2.30;;
12328;SDS011;6230;52.390;10.256;2023-04-25T11:28:48;7.23;;;2.10;;
12328;SDS011;6230;52.390;10.256;2023-04-25T11:31:14;9.53;;;2.20;;
12328;SDS011;6230;52.390;10.256;2023-04-25T11:33:40;5.57;;;1.97;;
12328;SDS011;6230;52.390;10.256;2023-04-25T11:36:05;6.00;;;2.03;;
12328;SDS011;6230;52.390;10.256;2023-04-25T11:38:31;5.37;;;2.30;;
12328;SDS011;6230;52.390;10.256;2023-04-25T11:40:57;6.27;;;2.93;;
12328;SDS011;6230;52.390;10.256;2023-04-25T11:43:23;6.00;;;2.20;;
12328;SDS011;6230;52.390;10.256;2023-04-25T11:45:50;4.13;;;2.00;;
12328;SDS011;6230;52.390;10.256;2023-04-25T11:48:16;6.10;;;2.13;;
12328;SDS011;6230;52.390;10.256;2023-04-25T11:50:43;4.90;;;2.33;;
12328;SDS011;6230;52.390;10.256;2023-04-25T11:53:08;6.03;;;2.30;;
12328;SDS011;6230;52.390;10.256;2023-04-25T11:55:35;10.30;;;4.83;;
12328;SDS011;6230;52.390;10.256;2023-04-25T11:58:01;6.37;;;2.77;;
12328;SDS011;6230;52.390;10.256;2023-04-25T12:00:28;8.20;;;3.07;;
12328;SDS011;6230;52.390;10.256;2023-04-25T12:02:54;5.23;;;1.77;;
12328;SDS011;6230;52.390;10.256;2023-04-25T12:05:29;12.63;;;3.90;;
12328;SDS011;6230;52.390;10.256;2023-04-25T12:07:58;10.43;;;5.10;;
12328;SDS011;6230;52.390;10.256;2023-04-25T12:10:36;7.67;;;2.37;;
12328;SDS011;6230;52.390;10.256;2023-04-25T12:13:17;6.40;;;3.17;;
12328;SDS011;6230;52.390;10.256;2023-04-25T12:15:44;8.83;;;2.23;;
12328;SDS011;6230;52.390;10.256;2023-04-25T12:18:09;4.80;;;2.50;;
12328;SDS011;6230;52.390;10.256;2023-04-25T12:20:35;10.47;;;2.67;;
12328;SDS011;6230;52.390;10.256;2023-04-25T12:23:01;7.20;;;2.60;;
12328;SDS011;6230;52.390;10.256;2023-04-25T12:25:39;4.63;;;1.70;;
12328;SDS011;6230;52.390;10.256;2023-04-25T12:30:54;5.40;;;1.83;;
12328;SDS011;6230;52.390;10.256;2023-04-25T12:33:20;5.30;;;1.57;;
12328;SDS011;6230;52.390;10.256;2023-04-25T12:35:46;3.23;;;1.70;;
12328;SDS011;6230;52.390;10.256;2023-04-25T12:38:20;1.80;;;1.40;;
12328;SDS011;6230;52.390;10.256;2023-04-25T12:40:53;2.63;;;1.43;;
12328;SDS011;6230;52.390;10.256;2023-04-25T12:43:19;3.80;;;1.30;;
12328;SDS011;6230;52.390;10.256;2023-04-25T12:45:49;5.20;;;1.93;;
12328;SDS011;6230;52.390;10.256;2023-04-25T12:48:19;9.57;;;5.23;;
12328;SDS011;6230;52.390;10.256;2023-04-25T12:50:45;7.27;;;3.53;;
12328;SDS011;6230;52.390;10.256;2023-04-25T12:53:14;4.30;;;1.63;;
12328;SDS011;6230;52.390;10.256;2023-04-25T12:55:40;7.00;;;2.00;;
12328;SDS011;6230;52.390;10.256;2023-04-25T12:58:06;4.83;;;3.13;;
12328;SDS011;6230;52.390;10.256;2023-04-25T13:00:32;7.07;;;3.20;;
12328;SDS011;6230;52.390;10.256;2023-04-25T13:02:57;4.57;;;2.30;;
12328;SDS011;6230;52.390;10.256;2023-04-25T13:05:23;7.87;;;2.87;;
12328;SDS011;6230;52.390;10.256;2023-04-25T13:07:49;7.73;;;2.13;;
12328;SDS011;6230;52.390;10.256;2023-04-25T13:10:16;4.73;;;2.60;;
12328;SDS011;6230;52.390;10.256;2023-04-25T13:12:42;3.50;;;1.40;;
12328;SDS011;6230;52.390;10.256;2023-04-25T13:15:08;4.37;;;1.77;;
12328;SDS011;6230;52.390;10.256;2023-04-25T13:17:36;5.67;;;1.40;;
12328;SDS011;6230;52.390;10.256;2023-04-25T13:20:02;3.00;;;1.60;;
12328;SDS011;6230;52.390;10.256;2023-04-25T13:22:31;2.83;;;1.53;;
12328;SDS011;6230;52.390;10.256;2023-04-25T13:24:56;3.40;;;1.50;;
12328;SDS011;6230;52.390;10.256;2023-04-25T13:27:22;8.37;;;1.60;;
12328;SDS011;6230;52.390;10.256;2023-04-25T13:29:47;7.90;;;1.90;;
12328;SDS011;6230;52.390;10.256;2023-04-25T13:32:13;3.67;;;1.30;;
12328;SDS011;6230;52.390;10.256;2023-04-25T13:34:39;2.73;;;1.23;;
12328;SDS011;6230;52.390;10.256;2023-04-25T13:37:04;3.43;;;1.93;;
12328;SDS011;6230;52.390;10.256;2023-04-25T13:39:30;2.97;;;1.80;;
12328;SDS011;6230;52.390;10.256;2023-04-25T13:41:55;4.40;;;1.93;;
12328;SDS011;6230;52.390;10.256;2023-04-25T13:44:21;3.80;;;1.47;;
12328;SDS011;6230;52.390;10.256;2023-04-25T13:46:46;5.77;;;1.83;;
12328;SDS011;6230;52.390;10.256;2023-04-25T13:49:12;3.97;;;1.60;;
12328;SDS011;6230;52.390;10.256;2023-04-25T13:51:38;3.13;;;1.47;;
12328;SDS011;6230;52.390;10.256;2023-04-25T13:54:03;3.77;;;1.53;;
12328;SDS011;6230;52.390;10.256;2023-04-25T13:56:29;4.37;;;1.27;;
12328;SDS011;6230;52.390;10.256;2023-04-25T13:58:55;3.83;;;1.40;;
12328;SDS011;6230;52.390;10.256;2023-04-25T14:01:21;3.80;;;1.80;;
12328;SDS011;6230;52.390;10.256;2023-04-25T14:03:47;5.13;;;1.70;;
12328;SDS011;6230;52.390;10.256;2023-04-25T14:06:12;7.57;;;1.73;;
12328;SDS011;6230;52.390;10.256;2023-04-25T14:08:38;6.27;;;2.43;;
12328;SDS011;6230;52.390;10.256;2023-04-25T14:11:04;3.67;;;1.90;;
12328;SDS011;6230;52.390;10.256;2023-04-25T14:13:29;6.83;;;3.30;;
12328;SDS011;6230;52.390;10.256;2023-04-25T14:15:55;12.97;;;7.40;;
12328;SDS011;6230;52.390;10.256;2023-04-25T14:18:21;6.80;;;3.43;;
12328;SDS011;6230;52.390;10.256;2023-04-25T14:20:46;4.43;;;1.90;;
12328;SDS011;6230;52.390;10.256;2023-04-25T14:23:12;6.03;;;1.93;;
12328;SDS011;6230;52.390;10.256;2023-04-25T14:25:38;3.40;;;1.57;;
12328;SDS011;6230;52.390;10.256;2023-04-25T14:28:05;4.43;;;1.83;;
12328;SDS011;6230;52.390;10.256;2023-04-25T14:30:31;4.70;;;1.70;;
12328;SDS011;6230;52.390;10.256;2023-04-25T14:32:56;3.40;;;1.60;;
12328;SDS011;6230;52.390;10.256;2023-04-25T14:35:22;5.23;;;1.80;;
12328;SDS011;6230;52.390;10.256;2023-04-25T14:37:47;4.83;;;2.03;;
12328;SDS011;6230;52.390;10.256;2023-04-25T14:40:13;4.83;;;1.97;;
12328;SDS011;6230;52.390;10.256;2023-04-25T14:42:40;4.40;;;2.27;;
12328;SDS011;6230;52.390;10.256;2023-04-25T14:45:06;4.73;;;1.83;;
12328;SDS011;6230;52.390;10.256;2023-04-25T14:47:33;5.20;;;1.90;;
12328;SDS011;6230;52.390;10.256;2023-04-25T14:49:59;3.90;;;2.20;;